createdAt,value
2022-12-29T00:00:08.052Z,65.57
2022-12-29T00:02:41.553Z,65.61
2022-12-29T00:05:08.377Z,65.70
2022-12-29T00:07:34.951Z,65.34
2022-12-29T00:10:01.791Z,64.71
2022-12-29T00:12:49.671Z,64.94
2022-12-29T00:15:35.108Z,65.06
2022-12-29T00:18:01.849Z,64.71
2022-12-29T00:21:03.476Z,65.33
2022-12-29T00:23:48.927Z,65.13
2022-12-29T00:26:36.301Z,64.67
2022-12-29T00:29:22.311Z,64.88
2022-12-29T00:32:07.463Z,65.51
2022-12-29T00:34:52.998Z,64.58
2022-12-29T00:37:39.499Z,63.97
2022-12-29T00:40:25.058Z,63.93
2022-12-29T00:43:13.147Z,63.86
2022-12-29T00:45:42.780Z,64.97
2022-12-29T00:48:09.820Z,65.09
2022-12-29T00:50:36.715Z,64.13
2022-12-29T00:53:03.239Z,65.82
2022-12-29T00:55:30.102Z,64.75
2022-12-29T00:57:56.743Z,64.29
2022-12-29T01:00:23.337Z,65.42
2022-12-29T01:02:50.297Z,64.24
2022-12-29T01:05:17.208Z,63.69
2022-12-29T01:07:45.776Z,64.80
2022-12-29T01:10:12.328Z,63.77
2022-12-29T01:12:42.526Z,62.96
2022-12-29T01:15:12.648Z,63.79
2022-12-29T01:17:39.419Z,63.35
2022-12-29T01:20:06.973Z,63.50
2022-12-29T01:22:33.941Z,64.55
2022-12-29T01:25:00.449Z,64.81
2022-12-29T01:27:27.017Z,65.41
2022-12-29T01:29:53.549Z,66.18
2022-12-29T01:32:20.076Z,65.62
2022-12-29T01:34:46.929Z,65.73
2022-12-29T01:37:13.480Z,65.52
2022-12-29T01:39:41.000Z,64.42
2022-12-29T01:42:17.116Z,64.23
2022-12-29T01:44:51.767Z,64.48
2022-12-29T01:47:42.649Z,64.00
2022-12-29T01:50:21.700Z,62.76
2022-12-29T01:53:19.992Z,63.46
2022-12-29T01:55:52.982Z,65.76
2022-12-29T01:58:23.463Z,65.18
2022-12-29T02:00:50.311Z,63.69
2022-12-29T02:03:20.468Z,65.25
2022-12-29T02:05:59.114Z,63.67
2022-12-29T02:08:29.469Z,63.94
2022-12-29T02:11:00.955Z,63.27
2022-12-29T02:13:29.187Z,64.78
2022-12-29T02:16:38.242Z,64.40
2022-12-29T02:19:34.430Z,63.91
2022-12-29T02:22:19.470Z,63.85
2022-12-29T02:25:09.038Z,63.55
2022-12-29T02:27:42.279Z,65.01
2022-12-29T02:30:18.500Z,64.69
2022-12-29T02:32:57.455Z,63.79
2022-12-29T02:35:41.697Z,64.35
2022-12-29T02:38:21.507Z,63.91
2022-12-29T02:41:03.874Z,64.18
2022-12-29T02:43:47.220Z,64.38
2022-12-29T02:46:38.296Z,62.25
2022-12-29T02:49:24.539Z,62.87
2022-12-29T02:51:59.321Z,63.64
2022-12-29T02:54:44.228Z,63.86
2022-12-29T02:57:33.641Z,63.88
2022-12-29T03:00:13.326Z,63.78
2022-12-29T03:03:00.165Z,62.61
2022-12-29T03:05:51.311Z,63.42
2022-12-29T03:08:35.129Z,64.59
2022-12-29T03:11:06.236Z,63.03
2022-12-29T03:14:12.328Z,64.20
2022-12-29T03:16:50.664Z,63.92
2022-12-29T03:19:36.461Z,64.19
2022-12-29T03:22:28.761Z,64.29
2022-12-29T03:25:06.520Z,64.28
2022-12-29T03:27:57.862Z,64.22
2022-12-29T03:30:28.066Z,63.41
2022-12-29T03:33:03.224Z,63.30
2022-12-29T03:35:35.936Z,65.02
2022-12-29T03:38:14.759Z,65.45
2022-12-29T03:40:45.015Z,67.41
2022-12-29T03:43:14.005Z,65.11
2022-12-29T03:45:40.929Z,66.69
2022-12-29T03:48:07.831Z,66.39
2022-12-29T03:50:37.571Z,66.43
2022-12-29T03:53:04.187Z,66.55
2022-12-29T03:55:31.507Z,65.78
2022-12-29T03:57:58.313Z,66.19
2022-12-29T04:00:46.021Z,66.76
2022-12-29T04:03:13.132Z,66.98
2022-12-29T04:05:39.896Z,67.18
2022-12-29T04:08:06.551Z,65.50
2022-12-29T04:10:33.169Z,66.05
2022-12-29T04:13:03.239Z,66.75
2022-12-29T04:15:29.820Z,64.93
2022-12-29T04:17:57.723Z,65.36
2022-12-29T04:20:43.543Z,65.45
2022-12-29T04:23:10.214Z,65.91
2022-12-29T04:25:38.092Z,65.35
2022-12-29T04:28:09.114Z,64.63
2022-12-29T04:30:48.742Z,65.08
2022-12-29T04:33:23.082Z,65.57
2022-12-29T04:35:50.037Z,66.00
2022-12-29T04:38:17.657Z,65.96
2022-12-29T04:40:45.653Z,64.50
2022-12-29T04:43:13.353Z,64.66
2022-12-29T04:45:58.303Z,64.53
2022-12-29T04:48:33.151Z,63.85
2022-12-29T04:51:11.356Z,63.06
2022-12-29T04:53:40.018Z,61.64
2022-12-29T04:56:07.994Z,63.32
2022-12-29T04:58:34.657Z,64.40
2022-12-29T05:01:01.297Z,63.81
2022-12-29T05:03:30.833Z,63.05
2022-12-29T05:05:58.473Z,62.99
2022-12-29T05:08:28.362Z,63.98
2022-12-29T05:10:58.989Z,62.75
2022-12-29T05:13:26.496Z,62.94
2022-12-29T05:15:54.049Z,62.47
2022-12-29T05:18:22.974Z,62.50
2022-12-29T05:20:50.365Z,61.71
2022-12-29T05:23:18.861Z,62.02
2022-12-29T05:25:50.280Z,62.25
2022-12-29T05:28:20.133Z,61.75
2022-12-29T05:30:53.422Z,61.32
2022-12-29T05:33:20.721Z,61.84
2022-12-29T05:35:50.142Z,61.34
2022-12-29T05:38:17.757Z,61.73
2022-12-29T05:40:46.117Z,61.82
2022-12-29T05:43:47.206Z,60.92
2022-12-29T05:46:32.402Z,60.71
2022-12-29T05:49:11.228Z,61.50
2022-12-29T05:51:52.434Z,62.25
2022-12-29T05:54:19.289Z,61.84
2022-12-29T05:56:46.582Z,60.79
2022-12-29T05:59:13.406Z,62.37
2022-12-29T06:01:40.735Z,62.22
2022-12-29T06:04:07.898Z,62.20
2022-12-29T06:06:35.146Z,62.32
2022-12-29T06:09:02.842Z,63.16
2022-12-29T06:11:29.440Z,62.43
2022-12-29T06:13:58.736Z,62.52
2022-12-29T06:16:25.362Z,61.71
2022-12-29T06:18:55.349Z,60.98
2022-12-29T06:21:22.381Z,59.84
2022-12-29T06:23:49.372Z,60.47
2022-12-29T06:26:16.083Z,60.46
2022-12-29T06:28:43.908Z,61.23
2022-12-29T06:31:12.128Z,63.26
2022-12-29T06:33:39.231Z,61.75
2022-12-29T06:36:06.422Z,63.52
2022-12-29T06:38:32.993Z,62.98
2022-12-29T06:41:00.216Z,63.62
2022-12-29T06:43:38.908Z,64.20
2022-12-29T06:46:15.604Z,64.04
2022-12-29T06:48:43.223Z,66.12
2022-12-29T06:51:09.779Z,65.47
2022-12-29T06:53:36.813Z,65.38
2022-12-29T06:56:04.239Z,66.49
2022-12-29T06:58:30.771Z,67.80
2022-12-29T07:00:57.381Z,67.89
2022-12-29T07:03:24.430Z,67.21
2022-12-29T07:05:50.991Z,68.08
2022-12-29T07:08:17.787Z,68.40
2022-12-29T07:10:44.656Z,68.62
2022-12-29T07:13:11.614Z,68.90
2022-12-29T07:15:38.493Z,68.61
2022-12-29T07:18:05.538Z,69.15
2022-12-29T07:20:32.767Z,69.65
2022-12-29T07:22:59.513Z,68.90
2022-12-29T07:25:26.072Z,68.56
2022-12-29T07:27:52.627Z,67.08
2022-12-29T07:30:19.183Z,66.39
2022-12-29T07:32:46.084Z,66.44
2022-12-29T07:35:12.864Z,65.87
2022-12-29T07:37:39.415Z,65.92
2022-12-29T07:40:06.537Z,65.68
2022-12-29T07:42:33.056Z,66.14
2022-12-29T07:45:00.630Z,66.29
2022-12-29T07:47:51.264Z,66.08
2022-12-29T07:50:18.635Z,67.26
2022-12-29T07:52:45.778Z,66.86
2022-12-29T07:55:12.307Z,66.65
2022-12-29T07:57:39.356Z,65.87
2022-12-29T08:00:06.430Z,65.02
2022-12-29T08:02:39.009Z,65.03
2022-12-29T08:05:06.168Z,66.22
2022-12-29T08:07:32.690Z,65.44
2022-12-29T08:09:59.296Z,65.19
2022-12-29T08:12:26.597Z,66.63
2022-12-29T08:14:53.293Z,65.58
2022-12-29T08:17:19.820Z,65.09
2022-12-29T08:19:46.485Z,64.78
2022-12-29T08:22:14.579Z,65.84
2022-12-29T08:24:41.547Z,65.98
2022-12-29T08:27:16.128Z,64.45
2022-12-29T08:29:46.970Z,63.91
2022-12-29T08:32:13.858Z,64.30
2022-12-29T08:34:40.444Z,63.31
2022-12-29T08:37:07.130Z,62.71
2022-12-29T08:39:33.737Z,62.70
2022-12-29T08:42:00.296Z,61.77
2022-12-29T08:44:27.232Z,61.89
2022-12-29T08:46:53.818Z,61.83
2022-12-29T08:49:20.412Z,61.23
2022-12-29T08:51:47.332Z,59.75
2022-12-29T08:54:14.133Z,58.26
2022-12-29T08:56:40.781Z,57.60
2022-12-29T08:59:07.922Z,58.13
2022-12-29T09:01:37.394Z,58.42
2022-12-29T09:04:14.790Z,57.08
2022-12-29T09:06:43.183Z,55.43
2022-12-29T09:09:09.773Z,53.76
2022-12-29T09:11:36.326Z,53.99
2022-12-29T09:14:03.089Z,52.91
2022-12-29T09:16:29.668Z,52.68
2022-12-29T09:18:56.234Z,52.58
2022-12-29T09:21:22.843Z,52.92
2022-12-29T09:23:49.783Z,51.21
2022-12-29T09:26:16.329Z,51.89
2022-12-29T09:28:43.230Z,50.84
2022-12-29T09:31:09.856Z,51.42
2022-12-29T09:33:36.485Z,51.68
2022-12-29T09:36:05.031Z,50.61
2022-12-29T09:38:31.885Z,51.70
2022-12-29T09:41:12.022Z,51.97
2022-12-29T09:44:03.236Z,51.17
2022-12-29T09:46:36.020Z,50.82
2022-12-29T09:49:08.588Z,50.95
2022-12-29T09:51:38.991Z,50.37
2022-12-29T09:54:35.496Z,49.94
2022-12-29T09:57:02.671Z,49.62
2022-12-29T09:59:41.283Z,50.79
2022-12-29T10:02:15.480Z,50.21
2022-12-29T10:04:43.954Z,49.96
2022-12-29T10:07:55.297Z,48.53
2022-12-29T10:10:37.050Z,46.86
2022-12-29T10:13:28.977Z,47.77
2022-12-29T10:16:32.918Z,47.11
2022-12-29T10:19:08.103Z,46.95
2022-12-29T10:22:00.112Z,47.33
2022-12-29T10:24:30.356Z,48.22
2022-12-29T10:26:59.574Z,47.73
2022-12-29T10:29:34.889Z,48.55
2022-12-29T10:32:12.860Z,48.67
2022-12-29T10:34:46.166Z,48.71
2022-12-29T10:37:33.480Z,49.12
2022-12-29T10:40:13.638Z,48.89
2022-12-29T10:42:44.362Z,50.96
2022-12-29T10:45:17.368Z,50.60
2022-12-29T10:47:57.077Z,51.86
2022-12-29T10:50:26.498Z,50.39
2022-12-29T10:52:55.220Z,51.78
2022-12-29T10:55:34.385Z,51.78
2022-12-29T10:58:05.768Z,53.31
2022-12-29T11:00:33.777Z,52.83
2022-12-29T11:03:29.862Z,53.22
2022-12-29T11:06:08.064Z,52.82
2022-12-29T11:08:43.600Z,52.50
2022-12-29T11:11:11.589Z,52.71
2022-12-29T11:13:50.382Z,51.62
2022-12-29T11:16:28.830Z,50.90
2022-12-29T11:18:55.455Z,50.74
2022-12-29T11:21:31.503Z,51.52
2022-12-29T11:24:06.613Z,51.28
2022-12-29T11:26:35.145Z,49.94
2022-12-29T11:29:16.828Z,49.75
2022-12-29T11:31:53.361Z,51.37
2022-12-29T11:34:26.409Z,50.98
2022-12-29T11:37:07.291Z,50.00
2022-12-29T11:39:57.642Z,50.13
2022-12-29T11:42:48.623Z,49.96
2022-12-29T11:45:19.798Z,49.86
2022-12-29T11:47:50.535Z,49.62
2022-12-29T11:50:23.843Z,51.71
2022-12-29T11:52:59.644Z,51.62
2022-12-29T11:55:28.254Z,51.76
2022-12-29T11:57:57.820Z,52.42
2022-12-29T12:00:26.747Z,52.09
2022-12-29T12:03:14.692Z,52.06
2022-12-29T12:05:54.810Z,52.63
2022-12-29T12:08:45.580Z,52.45
2022-12-29T12:11:17.383Z,51.85
2022-12-29T12:13:58.289Z,51.04
2022-12-29T12:16:38.743Z,51.41
2022-12-29T12:19:12.533Z,52.05
2022-12-29T12:21:46.016Z,52.06
2022-12-29T12:24:38.738Z,51.65
2022-12-29T12:27:22.879Z,52.34
2022-12-29T12:30:00.605Z,52.99
2022-12-29T12:32:56.493Z,52.16
2022-12-29T12:35:45.088Z,52.43
2022-12-29T12:38:31.842Z,52.47
2022-12-29T12:41:05.351Z,52.44
2022-12-29T12:43:46.518Z,51.93
2022-12-29T12:46:35.277Z,52.93
2022-12-29T12:49:41.407Z,51.97
2022-12-29T12:52:26.825Z,53.09
2022-12-29T12:55:15.050Z,53.84
2022-12-29T12:58:07.076Z,54.74
2022-12-29T13:00:48.127Z,53.63
2022-12-29T13:03:44.313Z,54.22
2022-12-29T13:06:34.699Z,53.88
2022-12-29T13:09:15.989Z,54.14
2022-12-29T13:11:56.883Z,54.17
2022-12-29T13:14:50.636Z,54.22
2022-12-29T13:17:33.984Z,53.81
2022-12-29T13:20:33.861Z,55.38
2022-12-29T13:23:25.509Z,54.94
2022-12-29T13:26:03.732Z,54.86
2022-12-29T13:28:41.524Z,55.29
2022-12-29T13:31:17.004Z,55.38
2022-12-29T13:34:29.394Z,54.13
2022-12-29T13:37:00.973Z,55.12
2022-12-29T13:39:34.834Z,54.79
2022-12-29T13:42:04.579Z,57.42
2022-12-29T13:44:36.894Z,57.42
2022-12-29T13:47:20.601Z,59.50
2022-12-29T13:49:49.290Z,59.27
2022-12-29T13:52:25.731Z,58.68
2022-12-29T13:55:09.484Z,58.75
2022-12-29T13:57:46.047Z,58.19
2022-12-29T14:00:24.714Z,58.13
2022-12-29T14:03:10.135Z,58.43
2022-12-29T14:05:37.326Z,58.56
2022-12-29T14:08:17.915Z,57.69
2022-12-29T14:10:52.783Z,60.07
2022-12-29T14:13:26.322Z,58.95
2022-12-29T14:15:57.238Z,58.95
2022-12-29T14:18:26.129Z,58.68
2022-12-29T14:21:00.680Z,58.61
2022-12-29T14:23:48.431Z,58.55
2022-12-29T14:26:47.327Z,59.75
2022-12-29T14:29:39.719Z,58.60
2022-12-29T14:32:26.549Z,59.82
2022-12-29T14:34:53.927Z,59.63
2022-12-29T14:37:34.708Z,59.06
2022-12-29T14:40:19.933Z,59.98
2022-12-29T14:42:48.556Z,60.80
2022-12-29T14:45:18.087Z,60.87
2022-12-29T14:47:46.854Z,61.28
2022-12-29T14:50:41.630Z,59.57
2022-12-29T14:53:42.991Z,58.91
2022-12-29T14:56:14.810Z,59.71
2022-12-29T14:58:52.630Z,60.32
2022-12-29T15:01:27.535Z,61.65
2022-12-29T15:03:59.676Z,61.28
2022-12-29T15:06:30.818Z,59.65
2022-12-29T15:09:31.337Z,59.60
2022-12-29T15:12:24.867Z,60.99
2022-12-29T15:14:57.073Z,59.46
2022-12-29T15:17:35.257Z,58.83
2022-12-29T15:20:18.425Z,60.70
2022-12-29T15:22:46.769Z,59.42
2022-12-29T15:25:16.788Z,59.28
2022-12-29T15:27:49.107Z,58.18
2022-12-29T15:30:18.234Z,58.31
2022-12-29T15:32:46.863Z,58.88
2022-12-29T15:35:24.616Z,60.17
2022-12-29T15:37:51.141Z,59.16
2022-12-29T15:40:26.781Z,59.09
2022-12-29T15:43:27.538Z,60.06
2022-12-29T15:45:55.856Z,59.73
2022-12-29T15:48:24.956Z,60.12
2022-12-29T15:50:52.103Z,59.22
2022-12-29T15:53:33.026Z,59.62
2022-12-29T15:56:09.573Z,58.91
2022-12-29T15:58:51.338Z,58.53
2022-12-29T16:01:28.994Z,58.84
2022-12-29T16:03:56.632Z,59.59
2022-12-29T16:06:40.091Z,59.65
2022-12-29T16:09:15.412Z,58.93
2022-12-29T16:11:47.414Z,58.63
2022-12-29T16:14:19.545Z,59.67
2022-12-29T16:16:48.388Z,59.50
2022-12-29T16:19:21.881Z,59.37
2022-12-29T16:21:49.707Z,58.67
2022-12-29T16:24:20.439Z,58.59
2022-12-29T16:27:09.402Z,59.39
2022-12-29T16:29:36.622Z,58.16
2022-12-29T16:32:23.181Z,59.19
2022-12-29T16:35:24.434Z,59.05
2022-12-29T16:38:17.015Z,58.07
2022-12-29T16:40:56.520Z,58.32
2022-12-29T16:43:35.620Z,58.63
2022-12-29T16:46:02.211Z,57.86
2022-12-29T16:48:32.165Z,58.85
2022-12-29T16:51:05.547Z,58.71
2022-12-29T16:53:39.521Z,59.34
2022-12-29T16:56:14.320Z,58.36
2022-12-29T16:58:42.687Z,57.96
2022-12-29T17:01:15.712Z,58.70
2022-12-29T17:03:48.543Z,58.92
2022-12-29T17:06:17.789Z,59.37
2022-12-29T17:08:45.290Z,57.88
2022-12-29T17:11:53.888Z,58.68
2022-12-29T17:14:36.600Z,58.61
2022-12-29T17:17:05.923Z,58.47
2022-12-29T17:19:35.793Z,58.75
2022-12-29T17:22:06.181Z,59.31
2022-12-29T17:24:32.708Z,58.57
2022-12-29T17:27:00.772Z,58.09
2022-12-29T17:29:33.116Z,59.01
2022-12-29T17:32:01.131Z,58.66
2022-12-29T17:34:28.335Z,57.55
2022-12-29T17:36:54.829Z,56.81
2022-12-29T17:39:21.389Z,58.04
2022-12-29T17:41:49.111Z,56.28
2022-12-29T17:44:21.133Z,55.41
2022-12-29T17:46:48.981Z,55.52
2022-12-29T17:49:17.965Z,56.98
2022-12-29T17:51:47.042Z,57.96
2022-12-29T17:54:25.582Z,59.37
2022-12-29T17:56:52.651Z,57.72
2022-12-29T17:59:19.556Z,57.11
2022-12-29T18:01:48.159Z,56.65
2022-12-29T18:04:17.858Z,56.43
2022-12-29T18:06:46.111Z,56.54
2022-12-29T18:09:18.038Z,56.91
2022-12-29T18:11:45.386Z,56.83
2022-12-29T18:14:16.960Z,57.21
2022-12-29T18:16:43.979Z,58.76
2022-12-29T18:19:10.577Z,59.10
2022-12-29T18:21:39.506Z,57.42
2022-12-29T18:24:06.506Z,58.96
2022-12-29T18:26:35.768Z,58.46
2022-12-29T18:29:02.688Z,57.54
2022-12-29T18:31:31.694Z,57.84
2022-12-29T18:34:00.576Z,58.53
2022-12-29T18:36:28.922Z,59.78
2022-12-29T18:38:55.549Z,59.09
2022-12-29T18:41:24.999Z,59.42
2022-12-29T18:43:52.753Z,58.15
2022-12-29T18:46:23.185Z,57.52
2022-12-29T18:48:51.579Z,57.31
2022-12-29T18:51:21.793Z,57.64
2022-12-29T18:53:49.408Z,57.24
2022-12-29T18:56:16.543Z,57.34
2022-12-29T18:58:43.485Z,59.04
2022-12-29T19:01:20.445Z,59.00
2022-12-29T19:03:47.922Z,59.21
2022-12-29T19:06:14.614Z,58.07
2022-12-29T19:08:41.501Z,58.78
2022-12-29T19:11:08.076Z,58.63
2022-12-29T19:13:34.853Z,58.23
2022-12-29T19:16:01.488Z,59.06
2022-12-29T19:18:46.302Z,58.61
2022-12-29T19:21:15.039Z,59.69
2022-12-29T19:23:41.624Z,60.04
2022-12-29T19:26:37.672Z,60.80
2022-12-29T19:29:06.490Z,61.99
2022-12-29T19:31:33.721Z,60.93
2022-12-29T19:34:02.816Z,59.90
2022-12-29T19:36:29.720Z,61.84
2022-12-29T19:38:56.293Z,61.07
2022-12-29T19:41:23.052Z,61.25
2022-12-29T19:43:50.298Z,60.21
2022-12-29T19:46:19.043Z,60.30
2022-12-29T19:48:45.825Z,59.49
2022-12-29T19:51:16.981Z,59.93
2022-12-29T19:53:44.706Z,59.29
2022-12-29T19:56:12.153Z,60.84
2022-12-29T19:58:45.262Z,60.45
2022-12-29T20:01:17.686Z,60.24
2022-12-29T20:03:44.585Z,60.27
2022-12-29T20:06:12.374Z,60.03
2022-12-29T20:08:39.820Z,61.99
2022-12-29T20:11:13.761Z,61.52
2022-12-29T20:13:42.524Z,61.50
2022-12-29T20:16:15.305Z,60.80
2022-12-29T20:18:42.635Z,60.29
2022-12-29T20:21:13.419Z,61.49
2022-12-29T20:23:40.705Z,61.09
2022-12-29T20:26:11.374Z,62.48
2022-12-29T20:28:37.933Z,60.85
2022-12-29T20:31:15.717Z,60.58
2022-12-29T20:33:42.426Z,60.42
2022-12-29T20:36:12.593Z,59.92
2022-12-29T20:38:39.519Z,60.63
2022-12-29T20:41:06.350Z,59.76
2022-12-29T20:43:33.123Z,58.30
2022-12-29T20:46:00.785Z,58.87
2022-12-29T20:48:27.801Z,58.85
2022-12-29T20:50:59.191Z,59.29
2022-12-29T20:53:30.580Z,59.69
2022-12-29T20:56:02.139Z,60.01
2022-12-29T20:58:28.747Z,58.44
2022-12-29T21:00:56.062Z,59.94
2022-12-29T21:03:23.435Z,59.46
2022-12-29T21:05:52.124Z,58.19
2022-12-29T21:08:18.669Z,57.80
2022-12-29T21:10:47.362Z,57.84
2022-12-29T21:13:16.754Z,58.54
2022-12-29T21:15:45.429Z,58.08
2022-12-29T21:18:13.669Z,58.33
2022-12-29T21:20:41.078Z,57.41
2022-12-29T21:23:07.930Z,57.62
2022-12-29T21:25:37.526Z,57.91
2022-12-29T21:28:09.175Z,57.68
2022-12-29T21:30:36.388Z,57.52
2022-12-29T21:33:03.300Z,56.99
2022-12-29T21:35:30.764Z,56.79
2022-12-29T21:37:57.402Z,57.07
2022-12-29T21:40:24.089Z,56.31
2022-12-29T21:42:50.981Z,57.09
2022-12-29T21:45:26.890Z,57.13
2022-12-29T21:48:23.137Z,57.37
2022-12-29T21:51:10.909Z,57.06
2022-12-29T21:53:41.140Z,57.48
2022-12-29T21:56:17.844Z,57.46
2022-12-29T21:59:05.160Z,57.86
2022-12-29T22:01:53.923Z,58.37
2022-12-29T22:04:42.099Z,59.17
2022-12-29T22:07:29.470Z,59.66
2022-12-29T22:10:16.204Z,59.55
2022-12-29T22:12:59.175Z,59.38
2022-12-29T22:15:27.554Z,59.27
2022-12-29T22:17:55.458Z,58.76
2022-12-29T22:20:25.669Z,59.11
2022-12-29T22:22:52.715Z,57.52
2022-12-29T22:25:19.828Z,58.51
2022-12-29T22:27:46.974Z,58.33
2022-12-29T22:30:14.105Z,59.27
2022-12-29T22:32:40.929Z,57.86
2022-12-29T22:35:08.577Z,56.89
2022-12-29T22:37:36.964Z,58.18
2022-12-29T22:40:05.111Z,58.12
2022-12-29T22:42:32.312Z,57.96
2022-12-29T22:44:58.991Z,57.83
2022-12-29T22:47:25.897Z,57.75
2022-12-29T22:49:52.800Z,58.23
2022-12-29T22:52:19.372Z,57.87
2022-12-29T22:54:46.122Z,57.84
2022-12-29T22:57:12.693Z,57.48
2022-12-29T22:59:39.994Z,57.61
2022-12-29T23:02:06.604Z,57.38
2022-12-29T23:05:02.406Z,57.87
2022-12-29T23:07:19.876Z,56.99
2022-12-29T23:09:47.055Z,56.82
2022-12-29T23:12:13.629Z,59.07
2022-12-29T23:14:40.140Z,59.55
2022-12-29T23:17:06.684Z,58.15
2022-12-29T23:19:33.238Z,58.64
2022-12-29T23:21:59.924Z,58.01
2022-12-29T23:24:26.481Z,58.61
2022-12-29T23:26:53.057Z,57.60
2022-12-29T23:29:20.301Z,56.98
2022-12-29T23:31:47.847Z,59.13
2022-12-29T23:34:15.961Z,58.29
2022-12-29T23:36:43.150Z,57.61
2022-12-29T23:39:15.737Z,58.53
2022-12-29T23:41:42.285Z,59.36
2022-12-29T23:44:08.959Z,59.19
2022-12-29T23:46:36.786Z,58.61
2022-12-29T23:49:03.815Z,58.17
2022-12-29T23:51:30.363Z,58.66
2022-12-29T23:53:56.955Z,58.08
2022-12-29T23:56:23.620Z,56.93
2022-12-29T23:58:50.754Z,56.84
